createdAt,value
2018-01-31T01:54:02.193Z,101114.67
2018-01-31T01:59:03.506Z,101099.80
2018-01-31T02:04:04.843Z,101079.77
2018-01-31T02:09:06.176Z,101068.02
2018-01-31T02:14:07.771Z,101053.08
2018-01-31T02:19:09.866Z,101035.19
2018-01-31T02:24:11.921Z,101027.41
2018-01-31T02:29:13.270Z,101014.37
2018-01-31T02:34:15.364Z,101002.68
2018-01-31T02:39:35.056Z,100985.59
2018-01-31T02:44:36.371Z,100956.50
2018-01-31T02:49:37.675Z,100937.93
2018-01-31T02:54:39.727Z,100914.87
2018-01-31T02:59:41.054Z,100904.84
2018-01-31T03:04:42.358Z,100892.48
2018-01-31T03:09:43.690Z,100879.23
2018-01-31T03:14:44.994Z,100863.51
2018-01-31T03:19:46.307Z,100857.77
2018-01-31T03:24:47.624Z,100842.03
2018-01-31T03:29:49.839Z,100839.28
2018-01-31T03:34:51.193Z,100825.42
2018-01-31T03:39:52.519Z,100812.33
2018-01-31T03:44:53.851Z,100797.53
2018-01-31T03:49:55.195Z,100786.64
2018-01-31T03:54:56.550Z,100763.95
2018-01-31T03:59:57.883Z,100749.57
2018-01-31T04:04:59.203Z,100728.22
2018-01-31T04:10:00.542Z,100717.95
2018-01-31T04:15:02.633Z,100705.62
2018-01-31T04:20:03.962Z,100696.02
2018-01-31T04:25:05.285Z,100671.91
2018-01-31T04:30:06.602Z,100661.74
2018-01-31T04:35:07.957Z,100647.41
2018-01-31T04:40:09.753Z,100638.55
2018-01-31T04:45:11.520Z,100618.02
2018-01-31T04:50:13.153Z,100607.67
2018-01-31T04:55:14.474Z,100587.21
2018-01-31T05:00:15.808Z,100574.95
2018-01-31T05:05:17.180Z,100565.48
2018-01-31T05:10:18.619Z,100552.05
2018-01-31T05:15:19.952Z,100543.84
2018-01-31T05:20:22.043Z,100534.81
2018-01-31T05:25:23.355Z,100522.11
2018-01-31T05:30:25.414Z,100501.06
2018-01-31T05:35:26.752Z,100492.62
2018-01-31T05:40:28.070Z,100491.89
2018-01-31T05:45:29.411Z,100471.20
2018-01-31T05:50:31.610Z,100461.37
2018-01-31T05:55:34.026Z,100445.90
2018-01-31T06:00:36.143Z,100433.68
2018-01-31T06:05:38.879Z,100427.02
2018-01-31T06:10:41.724Z,100412.59
2018-01-31T06:15:43.536Z,100400.61
2018-01-31T06:20:44.991Z,100381.83
2018-01-31T06:25:46.929Z,100366.06
2018-01-31T06:30:53.494Z,100356.16
2018-01-31T06:35:54.932Z,100335.77
2018-01-31T06:40:56.422Z,100328.80
2018-01-31T06:45:57.765Z,100306.03
2018-01-31T06:50:59.072Z,100299.35
2018-01-31T06:56:01.140Z,100298.00
2018-01-31T07:01:02.568Z,100291.86
2018-01-31T07:06:04.627Z,100274.78
2018-01-31T07:11:05.949Z,100263.42
2018-01-31T07:16:08.035Z,100267.89
2018-01-31T07:21:09.378Z,100245.64
2018-01-31T07:26:10.708Z,100240.52
2018-01-31T07:31:12.096Z,100243.78
2018-01-31T07:36:13.463Z,100233.48
2018-01-31T07:41:15.554Z,100212.02
2018-01-31T07:46:17.606Z,100220.13
2018-01-31T07:51:19.128Z,100206.64
2018-01-31T07:56:20.512Z,100189.87
2018-01-31T08:01:21.850Z,100167.16
2018-01-31T08:06:23.170Z,100174.98
2018-01-31T08:11:24.897Z,100165.39
2018-01-31T08:16:27.074Z,100159.56
2018-01-31T08:21:28.864Z,100146.14
2018-01-31T08:26:30.908Z,100134.78
2018-01-31T08:31:33.261Z,100137.66
2018-01-31T08:36:34.630Z,100129.64
2018-01-31T08:41:37.463Z,100129.28
2018-01-31T08:46:40.018Z,100116.36
2018-01-31T08:51:42.155Z,100118.89
2018-01-31T08:56:43.467Z,100108.13
2018-01-31T09:01:44.759Z,100112.94
2018-01-31T09:06:46.104Z,100102.30
2018-01-31T09:11:47.431Z,100086.22
2018-01-31T09:16:48.756Z,100067.37
2018-01-31T09:21:50.121Z,100065.27
2018-01-31T09:26:52.211Z,100058.23
2018-01-31T09:31:53.602Z,100040.41
2018-01-31T09:36:55.232Z,100050.36
2018-01-31T09:41:56.603Z,100036.64
2018-01-31T09:46:57.959Z,100023.90
2018-01-31T09:51:59.328Z,100017.78
2018-01-31T09:57:00.633Z,99999.22
2018-01-31T10:02:01.956Z,100005.20
2018-01-31T10:07:04.016Z,100003.52
2018-01-31T10:12:05.438Z,99980.89
2018-01-31T10:17:06.803Z,99970.49
2018-01-31T10:22:08.203Z,99963.48
2018-01-31T10:27:09.542Z,99946.35
2018-01-31T10:32:10.939Z,99939.78
2018-01-31T10:37:12.350Z,99944.52
2018-01-31T10:42:13.725Z,99922.56
2018-01-31T10:47:15.103Z,99917.37
2018-01-31T10:52:16.429Z,99901.17
2018-01-31T10:57:28.763Z,99891.19
2018-01-31T11:02:19.219Z,99876.87
2018-01-31T11:07:20.596Z,99859.64
2018-01-31T11:12:21.939Z,99847.78
2018-01-31T11:17:24.015Z,99847.63
2018-01-31T11:22:25.350Z,99824.66
2018-01-31T11:27:27.500Z,99815.88
2018-01-31T11:32:28.858Z,99818.84
2018-01-31T11:37:30.478Z,99814.31
2018-01-31T11:42:31.854Z,99797.20
2018-01-31T11:47:33.217Z,99778.34
2018-01-31T11:52:35.547Z,99755.66
2018-01-31T11:57:36.872Z,99760.22
2018-01-31T12:02:38.216Z,99749.61
2018-01-31T12:07:40.655Z,99724.59
2018-01-31T12:12:46.774Z,99721.31
2018-01-31T12:17:48.410Z,99691.88
2018-01-31T12:23:09.946Z,99683.84
2018-01-31T12:28:25.285Z,99677.21
2018-01-31T12:33:45.012Z,99682.20
2018-01-31T12:38:58.187Z,99701.59
2018-01-31T12:44:00.166Z,99698.99
2018-01-31T12:49:02.582Z,99696.98
2018-01-31T12:54:22.577Z,99673.29
2018-01-31T12:59:42.478Z,99664.50
2018-01-31T13:05:02.207Z,99672.95
2018-01-31T13:10:21.916Z,99675.58
2018-01-31T13:15:40.374Z,99653.53
2018-01-31T13:32:27.503Z,99643.21
2018-01-31T13:37:54.825Z,99640.67
2018-01-31T13:48:55.859Z,99609.20
2018-01-31T13:54:16.689Z,99610.23
2018-01-31T13:59:36.558Z,99588.28
2018-01-31T14:04:56.239Z,99589.50
2018-01-31T14:10:16.030Z,99594.17
2018-01-31T14:15:35.870Z,99572.33
2018-01-31T14:20:55.830Z,99573.84
2018-01-31T14:26:15.599Z,99564.00
2018-01-31T14:31:35.253Z,99561.48
2018-01-31T14:36:36.425Z,99553.63
2018-01-31T14:41:37.513Z,99543.47
2018-01-31T14:46:39.868Z,99544.27
2018-01-31T14:51:41.365Z,99525.28
2018-01-31T14:56:42.502Z,99515.48
2018-01-31T15:01:43.597Z,99516.52
2018-01-31T15:06:45.031Z,99504.28
2018-01-31T15:11:46.554Z,99513.99
2018-01-31T15:16:48.022Z,99508.69
2018-01-31T15:21:49.139Z,99504.16
2018-01-31T15:26:50.693Z,99491.97
2018-01-31T15:31:51.834Z,99483.05
2018-01-31T15:36:52.952Z,99471.83
2018-01-31T15:41:54.757Z,99465.05
2018-01-31T15:46:56.620Z,99478.39
2018-01-31T15:51:57.725Z,99458.61
2018-01-31T15:56:59.953Z,99454.09
2018-01-31T16:02:01.034Z,99439.28
2018-01-31T16:07:03.066Z,99441.81
2018-01-31T16:12:04.467Z,99436.57
2018-01-31T16:17:05.839Z,99405.16
2018-01-31T16:22:08.041Z,99402.11
2018-01-31T16:27:21.631Z,99383.03
2018-01-31T16:32:41.459Z,99377.75
2018-01-31T16:37:43.443Z,99392.36
2018-01-31T16:42:45.375Z,99388.44
2018-01-31T16:47:47.002Z,99380.27
2018-01-31T16:52:48.891Z,99392.38
2018-01-31T16:57:50.512Z,99375.45
2018-01-31T17:02:51.843Z,99356.50
2018-01-31T17:07:53.135Z,99361.61
2018-01-31T17:12:54.435Z,99372.61
2018-01-31T17:17:55.978Z,99363.05
2018-01-31T17:22:58.085Z,99445.17
2018-01-31T17:28:00.007Z,99454.64
2018-01-31T17:33:01.683Z,99438.89
2018-01-31T17:38:03.073Z,99430.68
2018-01-31T17:43:04.402Z,99423.77
2018-01-31T17:48:05.800Z,99415.29
2018-01-31T17:53:07.526Z,99418.43
2018-01-31T17:58:11.621Z,99435.66
2018-01-31T18:03:13.752Z,99442.38
2018-01-31T18:08:15.071Z,99443.75
2018-01-31T18:13:16.998Z,99440.06
2018-01-31T18:18:18.311Z,99421.30
2018-01-31T18:23:20.778Z,99426.66
2018-01-31T18:28:22.886Z,99416.67
2018-01-31T18:33:24.274Z,99414.22
2018-01-31T18:38:25.567Z,99414.17
2018-01-31T18:43:26.883Z,99385.03
2018-01-31T18:48:28.187Z,99371.97
2018-01-31T18:53:30.235Z,99379.92
2018-01-31T18:58:31.543Z,99369.16
2018-01-31T19:03:33.802Z,99377.75
2018-01-31T19:08:35.831Z,99383.46
2018-01-31T19:13:37.233Z,99395.89
2018-01-31T19:18:38.546Z,99394.22
2018-01-31T19:23:40.347Z,99408.08
2018-01-31T19:28:42.998Z,99397.02
2018-01-31T19:33:44.528Z,99395.98
2018-01-31T19:38:46.025Z,99390.81
2018-01-31T19:43:47.631Z,99391.08
2018-01-31T19:48:49.978Z,99385.61
2018-01-31T19:53:51.298Z,99377.70
2018-01-31T19:58:53.905Z,99363.91
2018-01-31T20:03:56.014Z,99379.42
2018-01-31T20:08:58.094Z,99360.02
2018-01-31T20:14:00.884Z,99380.08
2018-01-31T20:19:02.459Z,99385.67
2018-01-31T20:24:03.840Z,99392.81
2018-01-31T20:29:06.428Z,99394.30
2018-01-31T20:34:07.913Z,99382.50
2018-01-31T20:39:09.285Z,99377.53
2018-01-31T20:44:10.653Z,99378.36
2018-01-31T20:49:12.303Z,99375.52
2018-01-31T20:54:14.391Z,99380.17
2018-01-31T20:59:16.359Z,99382.33
2018-01-31T21:04:18.040Z,99376.95
2018-01-31T21:09:20.666Z,99380.86
2018-01-31T21:14:22.006Z,99379.62
2018-01-31T21:19:23.340Z,99377.34
2018-01-31T21:24:24.697Z,99378.47
2018-01-31T21:29:26.035Z,99364.06
2018-01-31T21:34:27.527Z,99364.41
2018-01-31T21:39:29.790Z,99364.23
2018-01-31T21:44:31.120Z,99364.64
2018-01-31T21:49:32.444Z,99373.69
2018-01-31T21:54:33.945Z,99369.46
2018-01-31T21:59:35.254Z,99360.61
2018-01-31T22:04:36.595Z,99365.39
2018-01-31T22:09:37.922Z,99376.32
2018-01-31T22:14:39.236Z,99344.28
2018-01-31T22:19:41.333Z,99356.23
2018-01-31T22:24:42.643Z,99372.80
2018-01-31T22:29:43.987Z,99384.67
2018-01-31T22:34:45.384Z,99377.66
2018-01-31T22:39:46.713Z,99388.09
2018-01-31T22:44:48.768Z,99377.14
2018-01-31T22:49:50.120Z,99389.27
2018-01-31T22:54:52.165Z,99371.34
2018-01-31T22:59:53.490Z,99383.47
2018-01-31T23:04:54.823Z,99392.23
2018-01-31T23:09:56.122Z,99407.77
2018-01-31T23:14:57.427Z,99413.98
2018-01-31T23:19:58.750Z,99410.69
2018-01-31T23:25:00.083Z,99396.80
2018-01-31T23:30:01.404Z,99406.00
2018-01-31T23:35:02.823Z,99401.86
2018-01-31T23:40:04.886Z,99406.40
2018-01-31T23:45:06.203Z,99395.09
2018-01-31T23:50:07.573Z,99401.80
2018-01-31T23:55:08.892Z,99394.64
